首页
METAR-TAF:

METAR-TAF

机场 :

Daniel Field Airport

奥古斯塔, 喬治亞, 美国

纬度: 33-28-01N, 经度: 082-02-19W, 海拔: 128米

当前天气观测

该预报发布于12分钟前的22:53 UTC
风速11节,风向南转南东
温度 19°C
湿度 68%
气压 1014 hPa
能見度: 16.1公里
多云层高于3900英尺

METAR: KDNL 232253Z AUTO 15011KT 10SM BKN039 19/13 A2995 RMK AO2 SLP140 T01940133 TSNO

时间: 18:05 (23:05 UTC)

预报

该预报发布于32分钟前的22:33 UTC
预报有效从23日的 23点(UTC)到 24日的 18点(UTC)
风速12节,风向南转南东,有时为22节阵风
能見度: 10公里
散云层高于1000英尺
散云层高于2500英尺
多云层高于10000英尺
附近有阵雨
从 24日的 0400点(UTC)
风速14节,风向,有时为24节阵风
能見度: 3.2公里
散云层高于800英尺
阴天层高于1500英尺
阵雨, 轻雾
从 24日的 1000点(UTC)
风速10节,风向西转西南,有时为20节阵风
能見度: 6.4公里
散云层高于800英尺
阴天层高于1500英尺
小阵雨, 轻雾
从 24日的 1500点(UTC)
风速12节,风向西,有时为19节阵风
能見度: 10公里
散云层高于1500英尺
多云层高于5000英尺

TAF: KDNL 232233Z 2323/2418 15012G22KT P6SM VCSH SCT010 SCT025 BKN100 WS020/18045KT FM240400 17014G24KT 2SM SHRA BR SCT008 OVC015 FM241000 24010G20KT 4SM -SHRA BR SCT008 OVC015 FM241500 27012G19KT P6SM SCT015 BKN050

超过4000个机场的气象观测和天气预报(METAR&TAF报告)。

可查询的气象台以黄色和红色小点在地图上表示。

将鼠标移到小点上方,可查看气象台名称。

然后点击查看天气观测和预报。

如需切换地图:点击带黑十字的绿色按钮放大地图;点击带横线的绿色按钮缩小地图;或者点击绿色箭头查看邻近地区的地图。


METAR-TAF: